createdAt,value
2017-01-07T00:00:02.308Z,-6.27
2017-01-07T00:10:02.569Z,-6.26
2017-01-07T00:20:02.901Z,-6.21
2017-01-07T00:30:02.142Z,-6.21
2017-01-07T00:40:02.425Z,-6.22
2017-01-07T00:50:02.726Z,-6.22
2017-01-07T01:00:03.039Z,-6.18
2017-01-07T01:10:02.310Z,-6.15
2017-01-07T01:20:02.713Z,-6.13
2017-01-07T01:30:02.952Z,-6.08
2017-01-07T01:40:02.206Z,-6.04
2017-01-07T01:50:02.588Z,-6.04
2017-01-07T02:00:03.008Z,-6.01
2017-01-07T02:10:02.380Z,-6.01
2017-01-07T02:20:02.905Z,-5.98
2017-01-07T02:30:02.299Z,-5.91
2017-01-07T02:40:02.732Z,-5.88
2017-01-07T02:50:03.153Z,-5.89
2017-01-07T03:00:02.563Z,-5.83
2017-01-07T03:10:02.981Z,-5.78
2017-01-07T03:20:02.429Z,-5.75
2017-01-07T03:30:02.828Z,-5.72
2017-01-07T03:40:02.253Z,-5.72
2017-01-07T03:50:02.699Z,-5.72
2017-01-07T04:00:03.096Z,-5.7
2017-01-07T04:10:02.514Z,-5.69
2017-01-07T04:20:03.032Z,-5.65
2017-01-07T04:30:02.449Z,-5.6
2017-01-07T04:40:02.850Z,-5.6
2017-01-07T04:50:02.289Z,-5.56
2017-01-07T05:00:02.704Z,-5.57
2017-01-07T05:10:03.145Z,-5.56
2017-01-07T05:20:02.579Z,-5.54
2017-01-07T05:30:02.952Z,-5.49
2017-01-07T05:40:02.311Z,-5.46
2017-01-07T05:50:02.515Z,-5.42
2017-01-07T06:00:02.913Z,-5.4
2017-01-07T06:10:02.311Z,-5.4
2017-01-07T06:20:02.831Z,-5.41
2017-01-07T06:30:02.246Z,-5.41
2017-01-07T06:40:02.661Z,-5.4
2017-01-07T06:50:03.110Z,-5.34
2017-01-07T07:00:02.470Z,-5.24
2017-01-07T07:10:02.906Z,-5.2
2017-01-07T07:20:02.411Z,-5.1
2017-01-07T07:30:02.834Z,-4.97
2017-01-07T07:40:02.260Z,-4.84
2017-01-07T07:50:02.699Z,-4.69
2017-01-07T08:00:03.119Z,-4.53
2017-01-07T08:10:02.506Z,-4.37
2017-01-07T08:20:03.048Z,-4.22
2017-01-07T08:30:02.432Z,-4.06
2017-01-07T08:40:02.860Z,-3.92
2017-01-07T08:50:02.293Z,-3.79
2017-01-07T09:00:02.704Z,-3.65
2017-01-07T09:10:03.135Z,-3.54
2017-01-07T09:20:02.648Z,-3.48
2017-01-07T09:30:03.642Z,-3.48
2017-01-07T09:40:03.077Z,-3.45
2017-01-07T09:50:02.508Z,-3.38
2017-01-07T10:00:02.360Z,-3.33
2017-01-07T10:10:02.801Z,-3.28
2017-01-07T10:20:02.306Z,-3.24
2017-01-07T10:30:02.692Z,-3.18
2017-01-07T10:40:03.108Z,-3.1
2017-01-07T10:50:02.519Z,-3.05
2017-01-07T11:00:02.940Z,-2.96
2017-01-07T11:10:02.296Z,-2.84
2017-01-07T11:20:02.833Z,-2.8
2017-01-07T11:30:02.245Z,-2.78
2017-01-07T11:40:07.652Z,-2.79
2017-01-07T11:50:08.091Z,-2.74
2017-01-07T12:00:02.505Z,-2.65
2017-01-07T12:10:02.908Z,-2.63
2017-01-07T12:20:02.407Z,-2.62
2017-01-07T12:30:02.789Z,-2.61
2017-01-07T12:40:02.232Z,-2.58
2017-01-07T12:50:02.639Z,-2.56
2017-01-07T13:00:03.015Z,-2.53
2017-01-07T13:10:02.425Z,-2.5
2017-01-07T13:20:02.922Z,-2.48
2017-01-07T13:30:02.305Z,-2.53
2017-01-07T13:40:02.679Z,-2.5
2017-01-07T13:50:03.108Z,-2.52
2017-01-07T14:00:02.508Z,-2.47
2017-01-07T14:10:04.937Z,-2.39
2017-01-07T14:20:02.443Z,-2.34
2017-01-07T14:30:02.859Z,-2.31
2017-01-07T14:40:02.280Z,-2.31
2017-01-07T14:50:02.717Z,-2.29
2017-01-07T15:00:03.122Z,-2.27
2017-01-07T15:10:02.520Z,-2.26
2017-01-07T15:20:03.072Z,-2.22
2017-01-07T15:30:02.489Z,-2.23
2017-01-07T15:40:02.878Z,-2.23
2017-01-07T15:50:02.270Z,-2.22
2017-01-07T16:00:02.652Z,-2.21
2017-01-07T16:10:03.046Z,-2.2
2017-01-07T16:20:02.760Z,-2.18
2017-01-07T16:30:02.194Z,-2.16
2017-01-07T16:40:02.643Z,-2.07
2017-01-07T17:00:02.559Z,-1.88
2017-01-07T17:10:03.019Z,-1.78
2017-01-07T17:20:02.528Z,-1.7
2017-01-07T17:40:02.218Z,-1.63
2017-01-07T17:50:02.745Z,-1.57
2017-01-07T18:00:03.147Z,-1.49
2017-01-07T18:10:02.551Z,-1.43
2017-01-07T18:20:03.064Z,-1.32
2017-01-07T18:30:02.498Z,-1.2
2017-01-07T18:40:02.932Z,-1.13
2017-01-07T18:50:02.402Z,-1.04
2017-01-07T19:00:02.817Z,-0.95
2017-01-07T19:10:02.230Z,-0.83
2017-01-07T19:20:02.768Z,-0.71
2017-01-07T19:30:02.165Z,-0.61
2017-01-07T19:40:02.590Z,-0.54
2017-01-07T19:50:03.016Z,-0.52
2017-01-07T20:00:03.138Z,-0.43
2017-01-07T20:10:02.569Z,-0.4
2017-01-07T20:20:03.123Z,-0.29
2017-01-07T20:30:02.509Z,-0.25
2017-01-07T20:40:02.981Z,-0.25
2017-01-07T20:50:02.397Z,-0.24
2017-01-07T21:00:02.801Z,-0.21
2017-01-07T21:10:02.225Z,-0.2
2017-01-07T21:20:02.724Z,-0.17
2017-01-07T21:30:02.326Z,-0.15
2017-01-07T21:40:02.759Z,-0.13
2017-01-07T21:50:02.943Z,-0.1
2017-01-07T22:00:04.044Z,-0.09
2017-01-07T22:10:03.092Z,-0.07
2017-01-07T22:20:02.643Z,-0.07
2017-01-07T22:30:03.075Z,-0.03
2017-01-07T22:40:02.426Z,-0.02
2017-01-07T22:50:02.878Z,0.02
2017-01-07T23:00:02.351Z,0.01
2017-01-07T23:10:02.757Z,0.02
2017-01-07T23:20:02.273Z,0.04
2017-01-07T23:30:02.712Z,0.07
2017-01-07T23:40:03.133Z,0.08
2017-01-07T23:50:02.486Z,0.14
